createdAt,value
2018-08-28T00:02:00.974Z,99.90
2018-08-28T00:04:31.554Z,99.90
2018-08-28T00:07:05.764Z,99.90
2018-08-28T00:09:36.619Z,99.90
2018-08-28T00:12:07.616Z,99.90
2018-08-28T00:14:41.167Z,99.90
2018-08-28T00:17:15.254Z,99.90
2018-08-28T00:19:45.742Z,99.90
2018-08-28T00:22:16.179Z,99.90
2018-08-28T00:24:46.686Z,99.90
2018-08-28T00:27:17.232Z,99.90
2018-08-28T00:29:47.767Z,99.90
2018-08-28T00:32:21.866Z,99.90
2018-08-28T00:34:52.289Z,99.90
2018-08-28T00:37:22.778Z,99.90
2018-08-28T00:39:53.191Z,99.90
2018-08-28T00:42:23.466Z,99.90
2018-08-28T00:44:53.883Z,99.90
2018-08-28T00:47:30.196Z,99.90
2018-08-28T00:50:01.247Z,99.90
2018-08-28T00:52:32.117Z,99.90
2018-08-28T00:55:02.338Z,99.90
2018-08-28T00:57:32.812Z,99.90
2018-08-28T01:00:03.375Z,99.90
2018-08-28T01:02:33.787Z,99.90
2018-08-28T01:05:04.592Z,99.90
2018-08-28T01:07:34.993Z,99.90
2018-08-28T01:10:05.826Z,99.90
2018-08-28T01:12:41.103Z,99.90
2018-08-28T01:15:11.395Z,99.90
2018-08-28T01:17:41.861Z,99.90
2018-08-28T01:20:12.220Z,99.90
2018-08-28T01:22:42.715Z,99.90
2018-08-28T01:25:13.086Z,99.90
2018-08-28T01:27:43.413Z,99.90
2018-08-28T01:30:13.931Z,99.90
2018-08-28T01:32:46.287Z,99.90
2018-08-28T01:35:16.587Z,99.90
2018-08-28T01:37:46.817Z,99.90
2018-08-28T01:40:17.057Z,99.90
2018-08-28T01:42:47.418Z,99.90
2018-08-28T01:45:17.838Z,99.90
2018-08-28T01:47:49.274Z,99.90
2018-08-28T01:50:19.683Z,99.90
2018-08-28T01:52:50.200Z,99.90
2018-08-28T01:55:20.533Z,99.90
2018-08-28T01:57:50.799Z,99.90
2018-08-28T02:00:21.282Z,99.90
2018-08-28T02:02:51.903Z,99.90
2018-08-28T02:05:22.180Z,99.90
2018-08-28T02:07:59.730Z,99.90
2018-08-28T02:10:30.361Z,99.90
2018-08-28T02:13:00.428Z,99.90
2018-08-28T02:15:32.030Z,99.90
2018-08-28T02:18:02.482Z,99.90
2018-08-28T02:20:33.146Z,99.90
2018-08-28T02:23:03.731Z,99.90
2018-08-28T02:25:34.178Z,99.90
2018-08-28T02:28:04.603Z,99.90
2018-08-28T02:30:35.109Z,99.90
2018-08-28T02:33:07.315Z,99.90
2018-08-28T02:35:37.827Z,99.90
2018-08-28T02:38:08.030Z,99.90
2018-08-28T02:40:38.424Z,99.90
2018-08-28T02:43:13.371Z,99.90
2018-08-28T02:45:45.407Z,99.90
2018-08-28T02:48:16.152Z,99.90
2018-08-28T02:50:46.558Z,99.90
2018-08-28T02:53:16.980Z,99.90
2018-08-28T02:55:47.231Z,99.90
2018-08-28T02:58:17.499Z,99.90
2018-08-28T03:00:47.481Z,99.90
2018-08-28T03:03:17.570Z,99.90
2018-08-28T03:06:13.202Z,99.90
2018-08-28T03:08:43.529Z,99.90
2018-08-28T03:11:14.539Z,99.90
2018-08-28T03:13:44.474Z,99.90
2018-08-28T03:16:18.653Z,99.90
2018-08-28T03:18:48.578Z,99.90
2018-08-28T03:21:18.561Z,99.90
2018-08-28T03:23:48.645Z,99.90
2018-08-28T03:26:20.190Z,99.90
2018-08-28T03:28:53.471Z,99.90
2018-08-28T03:31:24.402Z,99.90
2018-08-28T03:33:54.537Z,99.90
2018-08-28T03:36:25.255Z,99.90
2018-08-28T03:38:55.694Z,99.90
2018-08-28T03:41:27.083Z,99.90
2018-08-28T03:43:58.028Z,99.90
2018-08-28T03:46:28.701Z,99.90
2018-08-28T03:48:59.056Z,99.90
2018-08-28T03:51:29.355Z,99.90
2018-08-28T03:54:00.946Z,99.90
2018-08-28T03:56:31.373Z,99.90
2018-08-28T03:59:01.675Z,99.90
2018-08-28T04:01:39.811Z,99.90
2018-08-28T04:04:27.970Z,99.90
2018-08-28T04:07:07.868Z,99.90
2018-08-28T04:09:38.531Z,99.90
2018-08-28T04:12:22.715Z,99.90
2018-08-28T04:14:53.227Z,99.90
2018-08-28T04:17:24.228Z,99.90
2018-08-28T04:19:54.964Z,99.90
2018-08-28T04:22:25.448Z,99.90
2018-08-28T04:24:55.728Z,99.90
2018-08-28T04:27:26.307Z,99.90
2018-08-28T04:29:56.842Z,99.90
2018-08-28T04:32:27.890Z,99.90
2018-08-28T04:34:58.834Z,99.90
2018-08-28T04:37:29.688Z,99.90
2018-08-28T04:40:01.246Z,99.90
2018-08-28T04:42:32.474Z,99.90
2018-08-28T04:45:02.979Z,99.90
2018-08-28T04:47:33.934Z,99.90
2018-08-28T04:50:04.595Z,99.90
2018-08-28T04:52:35.938Z,99.90
2018-08-28T04:55:06.787Z,99.90
2018-08-28T04:57:37.597Z,99.90
2018-08-28T05:00:09.032Z,99.90
2018-08-28T05:02:40.590Z,99.90
2018-08-28T05:05:11.523Z,99.90
2018-08-28T05:07:42.065Z,99.90
2018-08-28T05:10:13.008Z,99.90
2018-08-28T05:12:44.015Z,99.90
2018-08-28T05:15:15.008Z,99.90
2018-08-28T05:17:46.052Z,99.90
2018-08-28T05:20:17.043Z,99.90
2018-08-28T05:22:47.662Z,99.90
2018-08-28T05:25:18.130Z,99.90
2018-08-28T05:27:49.609Z,99.90
2018-08-28T05:30:20.543Z,99.90
2018-08-28T05:32:56.471Z,99.90
2018-08-28T05:35:27.202Z,99.90
2018-08-28T05:37:58.139Z,99.90
2018-08-28T05:40:28.747Z,99.90
2018-08-28T05:42:59.558Z,99.90
2018-08-28T05:45:30.280Z,99.90
2018-08-28T05:48:01.517Z,99.90
2018-08-28T05:50:32.602Z,99.90
2018-08-28T05:53:02.970Z,99.90
2018-08-28T05:55:33.358Z,99.90
2018-08-28T05:58:03.867Z,99.90
2018-08-28T06:00:34.324Z,99.90
2018-08-28T06:03:05.030Z,99.90
2018-08-28T06:05:35.485Z,99.90
2018-08-28T06:08:06.221Z,99.90
2018-08-28T06:10:36.482Z,99.90
2018-08-28T06:13:06.869Z,99.90
2018-08-28T06:15:37.353Z,99.90
2018-08-28T06:18:07.735Z,99.90
2018-08-28T06:20:38.078Z,99.90
2018-08-28T06:23:08.816Z,99.90
2018-08-28T06:25:39.694Z,99.90
2018-08-28T06:28:10.779Z,99.90
2018-08-28T06:30:41.707Z,99.90
2018-08-28T06:33:12.459Z,99.90
2018-08-28T06:35:43.266Z,99.90
2018-08-28T06:38:14.289Z,99.40
2018-08-28T06:40:45.068Z,96.20
2018-08-28T06:43:16.122Z,94.20
2018-08-28T06:45:47.963Z,94.20
2018-08-28T06:48:18.526Z,93.90
2018-08-28T06:50:49.479Z,88.80
2018-08-28T06:53:20.943Z,79.00
2018-08-28T06:55:51.889Z,71.40
2018-08-28T06:58:22.900Z,68.90
2018-08-28T07:00:54.078Z,69.40
2018-08-28T07:03:25.097Z,72.30
2018-08-28T07:05:55.867Z,69.00
2018-08-28T07:08:26.878Z,67.50
2018-08-28T07:10:57.939Z,63.40
2018-08-28T07:13:28.559Z,60.30
2018-08-28T07:15:59.491Z,60.40
2018-08-28T07:18:30.506Z,57.80
2018-08-28T07:21:01.269Z,56.30
2018-08-28T07:23:32.151Z,54.40
2018-08-28T07:26:03.084Z,54.50
2018-08-28T07:28:33.708Z,54.90
2018-08-28T07:31:04.396Z,55.10
2018-08-28T07:33:35.278Z,55.20
2018-08-28T07:36:06.084Z,55.20
2018-08-28T07:38:36.733Z,55.00
2018-08-28T07:41:07.801Z,56.90
2018-08-28T07:43:38.715Z,58.10
2018-08-28T07:46:09.464Z,58.70
2018-08-28T07:48:40.295Z,59.40
2018-08-28T07:51:11.171Z,61.30
2018-08-28T07:53:41.906Z,62.00
2018-08-28T07:56:12.791Z,59.70
2018-08-28T07:58:47.689Z,60.10
2018-08-28T08:01:18.537Z,58.90
2018-08-28T08:03:49.824Z,61.50
2018-08-28T08:06:20.488Z,60.90
2018-08-28T08:08:51.402Z,59.40
2018-08-28T08:11:22.258Z,56.90
2018-08-28T08:13:53.338Z,56.70
2018-08-28T08:16:24.284Z,57.40
2018-08-28T08:18:54.923Z,56.10
2018-08-28T08:21:26.023Z,56.20
2018-08-28T08:23:57.010Z,55.00
2018-08-28T08:26:28.003Z,54.10
2018-08-28T08:28:58.943Z,53.60
2018-08-28T08:31:29.605Z,52.10
2018-08-28T08:34:00.612Z,50.70
2018-08-28T08:36:31.650Z,50.70
2018-08-28T08:39:02.936Z,49.60
2018-08-28T08:41:33.621Z,50.60
2018-08-28T08:44:04.380Z,50.60
2018-08-28T08:46:35.449Z,50.80
2018-08-28T08:49:06.145Z,48.50
2018-08-28T08:51:37.099Z,46.60
2018-08-28T08:54:08.087Z,47.90
2018-08-28T08:56:38.820Z,47.60
2018-08-28T08:59:09.826Z,47.20
2018-08-28T09:01:40.687Z,46.80
2018-08-28T09:04:11.165Z,49.20
2018-08-28T09:06:41.854Z,48.90
2018-08-28T09:09:12.831Z,46.90
2018-08-28T09:11:43.774Z,46.20
2018-08-28T09:14:15.159Z,46.80
2018-08-28T09:16:45.903Z,46.60
2018-08-28T09:19:17.203Z,45.50
2018-08-28T09:21:48.736Z,46.20
2018-08-28T09:24:19.535Z,46.40
2018-08-28T09:26:50.673Z,45.80
2018-08-28T09:29:21.629Z,46.60
2018-08-28T09:31:52.639Z,44.50
2018-08-28T09:34:23.279Z,45.10
2018-08-28T09:36:54.224Z,44.50
2018-08-28T09:39:24.871Z,44.10
2018-08-28T09:41:55.713Z,43.30
2018-08-28T09:44:26.299Z,43.40
2018-08-28T09:46:57.316Z,43.30
2018-08-28T09:49:27.984Z,42.20
2018-08-28T09:51:58.955Z,43.00
2018-08-28T09:54:30.228Z,43.10
2018-08-28T09:57:00.910Z,41.80
2018-08-28T09:59:31.796Z,41.60
2018-08-28T10:02:02.825Z,44.70
2018-08-28T10:04:33.547Z,42.50
2018-08-28T10:07:04.467Z,41.30
2018-08-28T10:09:35.446Z,42.10
2018-08-28T10:12:06.484Z,41.70
2018-08-28T10:14:37.119Z,40.50
2018-08-28T10:17:08.018Z,41.40
2018-08-28T10:19:38.562Z,40.60
2018-08-28T10:22:09.408Z,41.40
2018-08-28T10:24:39.995Z,42.20
2018-08-28T10:27:10.554Z,43.30
2018-08-28T10:29:42.202Z,42.90
2018-08-28T10:32:19.424Z,41.70
2018-08-28T10:34:50.546Z,41.20
2018-08-28T10:37:21.236Z,42.70
2018-08-28T10:39:52.089Z,41.20
2018-08-28T10:42:22.996Z,43.10
2018-08-28T10:44:54.600Z,42.00
2018-08-28T10:47:25.135Z,40.80
2018-08-28T10:49:55.973Z,40.40
2018-08-28T10:52:27.244Z,39.70
2018-08-28T10:54:57.638Z,41.00
2018-08-28T10:57:28.541Z,41.30
2018-08-28T10:59:59.217Z,42.40
2018-08-28T11:02:29.714Z,39.90
2018-08-28T11:05:00.310Z,38.50
2018-08-28T11:07:31.255Z,39.20
2018-08-28T11:10:01.795Z,40.90
2018-08-28T11:12:32.700Z,39.80
2018-08-28T11:15:03.755Z,38.80
2018-08-28T11:17:34.234Z,41.00
2018-08-28T11:20:04.773Z,40.30
2018-08-28T11:22:35.267Z,39.50
2018-08-28T11:25:07.200Z,40.50
2018-08-28T11:27:38.196Z,40.00
2018-08-28T11:30:09.258Z,38.70
2018-08-28T11:32:40.334Z,37.80
2018-08-28T11:35:10.955Z,39.10
2018-08-28T11:37:41.902Z,40.30
2018-08-28T11:40:13.220Z,39.40
2018-08-28T11:42:44.354Z,39.50
2018-08-28T11:45:15.530Z,38.70
2018-08-28T11:47:46.971Z,39.90
2018-08-28T11:50:17.602Z,38.90
2018-08-28T11:52:48.645Z,37.40
2018-08-28T11:55:23.550Z,36.40
2018-08-28T11:57:54.911Z,35.60
2018-08-28T12:00:26.050Z,35.00
2018-08-28T12:02:57.379Z,35.00
2018-08-28T12:05:28.091Z,34.10
2018-08-28T12:07:58.576Z,33.00
2018-08-28T12:10:29.439Z,34.90
2018-08-28T12:13:00.046Z,34.90
2018-08-28T12:15:30.675Z,34.30
2018-08-28T12:18:02.602Z,34.40
2018-08-28T12:20:33.580Z,35.20
2018-08-28T12:23:04.141Z,33.10
2018-08-28T12:25:34.694Z,32.00
2018-08-28T12:28:05.463Z,32.10
2018-08-28T12:30:36.113Z,31.00
2018-08-28T12:33:06.481Z,30.80
2018-08-28T12:35:36.649Z,32.50
2018-08-28T12:38:07.146Z,33.70
2018-08-28T12:40:37.601Z,32.90
2018-08-28T12:43:08.566Z,33.60
2018-08-28T12:45:39.178Z,32.50
2018-08-28T12:48:09.537Z,31.00
2018-08-28T12:50:40.190Z,31.10
2018-08-28T12:53:10.809Z,30.90
2018-08-28T12:55:47.193Z,31.20
2018-08-28T12:58:17.802Z,30.70
2018-08-28T13:00:47.817Z,31.30
2018-08-28T13:03:18.237Z,30.00
2018-08-28T13:05:54.669Z,30.60
2018-08-28T13:08:25.269Z,30.50
2018-08-28T13:10:55.759Z,30.40
2018-08-28T13:13:26.386Z,30.90
2018-08-28T13:15:57.224Z,29.90
2018-08-28T13:18:27.954Z,29.70
2018-08-28T13:20:58.755Z,29.40
2018-08-28T13:23:29.448Z,29.40
2018-08-28T13:26:00.075Z,29.80
2018-08-28T13:28:30.818Z,29.70
2018-08-28T13:31:01.759Z,29.90
2018-08-28T13:33:32.459Z,31.40
2018-08-28T13:36:03.447Z,33.10
2018-08-28T13:38:34.106Z,33.90
2018-08-28T13:41:04.473Z,31.80
2018-08-28T13:43:35.843Z,32.10
2018-08-28T13:46:06.570Z,32.50
2018-08-28T13:48:37.619Z,31.30
2018-08-28T13:51:15.509Z,31.50
2018-08-28T13:53:46.955Z,34.10
2018-08-28T13:56:17.527Z,36.90
2018-08-28T13:58:47.561Z,35.90
2018-08-28T14:01:18.900Z,35.80
2018-08-28T14:03:49.161Z,35.40
2018-08-28T14:06:20.106Z,33.10
2018-08-28T14:08:51.581Z,31.50
2018-08-28T14:11:22.121Z,32.30
2018-08-28T14:13:52.209Z,33.00
2018-08-28T14:16:22.621Z,34.30
2018-08-28T14:18:53.109Z,33.10
2018-08-28T14:21:23.646Z,32.20
2018-08-28T14:24:02.258Z,30.50
2018-08-28T14:26:33.037Z,31.80
2018-08-28T14:29:03.386Z,30.10
2018-08-28T14:31:33.636Z,29.00
2018-08-28T14:34:04.315Z,29.00
2018-08-28T14:36:34.768Z,31.00
2018-08-28T14:39:06.361Z,34.00
2018-08-28T14:41:36.461Z,33.60
2018-08-28T14:44:08.830Z,31.80
2018-08-28T14:46:39.277Z,29.90
2018-08-28T14:49:09.878Z,29.10
2018-08-28T14:51:40.285Z,28.70
2018-08-28T14:54:10.857Z,27.60
2018-08-28T14:56:41.897Z,28.00
2018-08-28T14:59:13.509Z,29.20
2018-08-28T15:01:44.243Z,29.20
2018-08-28T15:04:15.299Z,28.80
2018-08-28T15:06:46.363Z,28.20
2018-08-28T15:09:16.933Z,27.50
2018-08-28T15:11:49.425Z,27.40
2018-08-28T15:14:21.623Z,29.00
2018-08-28T15:16:53.513Z,28.90
2018-08-28T15:19:23.974Z,28.80
2018-08-28T15:21:54.486Z,26.80
2018-08-28T15:24:25.372Z,25.80
2018-08-28T15:26:55.694Z,25.10
2018-08-28T15:29:28.493Z,25.30
2018-08-28T15:31:59.066Z,26.90
2018-08-28T15:34:29.594Z,27.20
2018-08-28T15:37:00.050Z,26.60
2018-08-28T15:39:30.701Z,26.90
2018-08-28T15:42:01.095Z,27.10
2018-08-28T15:44:31.665Z,27.90
2018-08-28T15:47:03.117Z,27.60
2018-08-28T15:49:33.626Z,27.30
2018-08-28T15:52:15.573Z,27.50
2018-08-28T15:54:46.513Z,27.40
2018-08-28T15:57:17.174Z,27.20
2018-08-28T15:59:47.701Z,27.40
2018-08-28T16:02:19.218Z,28.20
2018-08-28T16:04:49.920Z,28.40
2018-08-28T16:07:20.593Z,27.70
2018-08-28T16:09:51.934Z,27.90
2018-08-28T16:12:29.706Z,28.30
2018-08-28T16:15:06.270Z,28.20
2018-08-28T16:17:37.835Z,28.10
2018-08-28T16:20:08.644Z,28.40
2018-08-28T16:22:42.950Z,28.90
2018-08-28T16:25:13.800Z,28.50
2018-08-28T16:27:44.369Z,29.40
2018-08-28T16:30:14.852Z,30.10
2018-08-28T16:32:45.769Z,30.70
2018-08-28T16:35:16.355Z,30.00
2018-08-28T16:37:47.085Z,30.00
2018-08-28T16:40:17.782Z,30.40
2018-08-28T16:42:48.469Z,31.50
2018-08-28T16:45:19.524Z,32.50
2018-08-28T16:51:02.859Z,32.30
2018-08-28T16:53:33.815Z,31.80
2018-08-28T16:56:06.031Z,32.50
2018-08-28T16:58:36.870Z,32.80
2018-08-28T17:01:08.003Z,33.50
2018-08-28T17:03:38.936Z,34.10
2018-08-28T17:06:19.539Z,34.20
2018-08-28T17:08:50.531Z,36.50
2018-08-28T17:11:21.677Z,38.10
2018-08-28T17:13:52.641Z,40.30
2018-08-28T17:16:23.926Z,40.90
2018-08-28T17:18:54.657Z,41.90
2018-08-28T17:21:25.513Z,43.80
2018-08-28T17:23:56.279Z,44.10
2018-08-28T17:26:27.507Z,44.80
2018-08-28T17:28:58.228Z,48.30
2018-08-28T17:31:29.005Z,50.00
2018-08-28T17:33:59.979Z,51.10
2018-08-28T17:36:31.119Z,51.00
2018-08-28T17:39:01.811Z,51.60
2018-08-28T17:41:32.755Z,52.20
2018-08-28T17:44:03.803Z,53.20
2018-08-28T17:46:35.122Z,54.10
2018-08-28T17:49:06.273Z,54.40
2018-08-28T17:51:36.789Z,58.40
2018-08-28T17:54:08.143Z,58.40
2018-08-28T17:56:39.366Z,58.20
2018-08-28T17:59:09.794Z,58.50
2018-08-28T18:01:40.232Z,59.40
2018-08-28T18:04:10.729Z,59.90
2018-08-28T18:06:41.091Z,60.20
2018-08-28T18:09:11.496Z,60.80
2018-08-28T18:11:41.983Z,61.00
2018-08-28T18:14:12.411Z,62.40
2018-08-28T18:16:42.743Z,63.20
2018-08-28T18:19:13.110Z,64.70
2018-08-28T18:21:43.748Z,65.30
2018-08-28T18:24:14.172Z,66.10
2018-08-28T18:26:47.741Z,67.10
2018-08-28T18:29:18.235Z,69.50
2018-08-28T18:31:48.634Z,72.10
2018-08-28T18:34:19.002Z,73.60
2018-08-28T18:36:49.410Z,76.80
2018-08-28T18:39:19.783Z,79.20
2018-08-28T18:41:50.324Z,85.60
2018-08-28T18:44:20.616Z,88.10
2018-08-28T18:46:51.285Z,90.20
2018-08-28T18:49:21.570Z,91.30
2018-08-28T18:51:52.196Z,93.90
2018-08-28T18:54:22.676Z,96.10
2018-08-28T18:56:53.350Z,95.30
2018-08-28T18:59:23.887Z,95.00
2018-08-28T19:01:54.433Z,96.00
2018-08-28T19:04:24.857Z,97.70
2018-08-28T19:06:55.560Z,96.20
2018-08-28T19:09:26.100Z,96.00
2018-08-28T19:11:56.826Z,95.60
2018-08-28T19:14:28.509Z,97.80
2018-08-28T19:16:58.985Z,97.10
2018-08-28T19:19:42.049Z,98.10
2018-08-28T19:22:12.544Z,97.50
2018-08-28T19:24:43.128Z,96.50
2018-08-28T19:27:14.143Z,97.00
2018-08-28T19:29:44.905Z,97.30
2018-08-28T19:32:15.678Z,99.00
2018-08-28T19:34:46.044Z,99.60
2018-08-28T19:37:16.709Z,99.90
2018-08-28T19:39:47.234Z,99.90
2018-08-28T19:42:28.936Z,99.90
2018-08-28T19:45:00.055Z,99.90
2018-08-28T19:47:30.895Z,99.90
2018-08-28T19:50:03.067Z,99.90
2018-08-28T19:52:34.792Z,99.90
2018-08-28T19:55:05.910Z,99.90
2018-08-28T19:57:36.778Z,99.90
2018-08-28T20:00:10.111Z,99.90
2018-08-28T20:02:41.455Z,99.90
2018-08-28T20:05:14.497Z,99.90
2018-08-28T20:07:45.913Z,99.90
2018-08-28T20:10:18.058Z,99.90
2018-08-28T20:12:49.480Z,99.90
2018-08-28T20:15:21.511Z,99.90
2018-08-28T20:17:52.542Z,99.90
2018-08-28T20:20:23.121Z,99.90
2018-08-28T20:22:55.081Z,99.90
2018-08-28T20:25:27.009Z,99.90
2018-08-28T20:27:57.925Z,99.90
2018-08-28T20:30:31.962Z,99.90
2018-08-28T20:33:05.606Z,99.90
2018-08-28T20:35:39.642Z,99.90
2018-08-28T20:38:10.598Z,99.90
2018-08-28T20:40:42.099Z,99.90
2018-08-28T20:43:15.313Z,99.90
2018-08-28T20:45:47.235Z,99.90
2018-08-28T20:48:19.152Z,99.90
2018-08-28T20:51:06.103Z,99.90
2018-08-28T20:53:37.791Z,99.90
2018-08-28T20:56:09.773Z,99.90
2018-08-28T20:58:42.843Z,99.90
2018-08-28T21:01:14.744Z,99.90
2018-08-28T21:03:47.467Z,99.90
2018-08-28T21:06:24.175Z,99.90
2018-08-28T21:08:56.126Z,99.90
2018-08-28T21:11:28.189Z,99.90
2018-08-28T21:14:00.698Z,99.90
2018-08-28T21:16:31.277Z,99.90
2018-08-28T21:19:01.711Z,99.90
2018-08-28T21:21:39.189Z,99.90
2018-08-28T21:24:09.657Z,99.90
2018-08-28T21:26:42.816Z,99.90
2018-08-28T21:29:14.195Z,99.90
2018-08-28T21:31:44.779Z,99.90
2018-08-28T21:34:15.438Z,99.90
2018-08-28T21:36:47.714Z,99.90
2018-08-28T21:39:19.016Z,99.90
2018-08-28T21:41:49.588Z,99.90
2018-08-28T21:44:20.194Z,99.90
2018-08-28T21:46:51.258Z,99.90
2018-08-28T21:49:22.577Z,99.90
2018-08-28T21:51:53.239Z,99.90
2018-08-28T21:54:24.866Z,99.90
2018-08-28T21:56:57.602Z,99.90
2018-08-28T21:59:28.413Z,99.90
2018-08-28T22:01:59.611Z,99.90
2018-08-28T22:04:30.564Z,99.90
2018-08-28T22:07:06.762Z,99.90
2018-08-28T22:09:39.884Z,99.90
2018-08-28T22:12:10.275Z,99.90
2018-08-28T22:14:41.434Z,99.90
2018-08-28T22:17:13.584Z,99.90
2018-08-28T22:19:43.611Z,99.90
2018-08-28T22:22:13.956Z,99.90
2018-08-28T22:24:44.134Z,99.90
2018-08-28T22:27:14.477Z,99.90
2018-08-28T22:29:46.109Z,99.90
2018-08-28T22:32:18.738Z,99.90
2018-08-28T22:34:50.587Z,99.90
2018-08-28T22:37:21.275Z,99.90
2018-08-28T22:39:52.363Z,99.90
2018-08-28T22:42:29.832Z,99.90
2018-08-28T22:45:01.624Z,99.90
2018-08-28T22:47:32.440Z,99.90
2018-08-28T22:50:05.215Z,99.90
2018-08-28T22:52:36.064Z,99.90
2018-08-28T22:55:06.995Z,99.90
2018-08-28T22:57:38.030Z,99.90
2018-08-28T23:00:13.023Z,99.90
2018-08-28T23:02:43.965Z,99.90
2018-08-28T23:05:15.088Z,99.90
2018-08-28T23:07:45.926Z,99.90
2018-08-28T23:10:16.914Z,99.90
2018-08-28T23:12:51.426Z,99.90
2018-08-28T23:15:28.728Z,99.90
2018-08-28T23:17:59.271Z,99.90
2018-08-28T23:20:30.184Z,99.90
2018-08-28T23:23:02.991Z,99.90
2018-08-28T23:25:33.591Z,99.90
2018-08-28T23:28:03.942Z,99.90
2018-08-28T23:30:34.415Z,99.90
2018-08-28T23:33:05.412Z,99.90
2018-08-28T23:35:35.981Z,99.90
2018-08-28T23:38:06.739Z,99.90
2018-08-28T23:40:36.978Z,99.90
2018-08-28T23:43:08.639Z,99.90
2018-08-28T23:45:39.245Z,99.90
2018-08-28T23:48:10.285Z,99.90
2018-08-28T23:50:40.726Z,99.90
2018-08-28T23:53:11.424Z,99.90
2018-08-28T23:55:42.134Z,99.90
2018-08-28T23:58:13.200Z,99.90
